sensor_id;sensor_type;location;lat;lon;timestamp;P1;durP1;ratioP1;P2;durP2;ratioP2
67508;SDS011;54354;44.724;11.284;2024-03-02T00:00:08;17.77;;;5.07;;
67508;SDS011;54354;44.724;11.284;2024-03-02T00:02:40;16.13;;;4.63;;
67508;SDS011;54354;44.724;11.284;2024-03-02T00:05:13;20.90;;;5.20;;
67508;SDS011;54354;44.724;11.284;2024-03-02T00:07:44;16.08;;;4.75;;
67508;SDS011;54354;44.724;11.284;2024-03-02T00:10:11;17.75;;;4.68;;
67508;SDS011;54354;44.724;11.284;2024-03-02T00:12:45;20.45;;;4.80;;
67508;SDS011;54354;44.724;11.284;2024-03-02T00:18:19;14.35;;;5.03;;
67508;SDS011;54354;44.724;11.284;2024-03-02T00:21:06;13.73;;;4.80;;
67508;SDS011;54354;44.724;11.284;2024-03-02T00:23:34;17.50;;;5.18;;
67508;SDS011;54354;44.724;11.284;2024-03-02T00:26:00;23.08;;;5.20;;
67508;SDS011;54354;44.724;11.284;2024-03-02T00:28:27;17.88;;;5.50;;
67508;SDS011;54354;44.724;11.284;2024-03-02T00:33:22;22.55;;;4.82;;
67508;SDS011;54354;44.724;11.284;2024-03-02T00:35:48;26.17;;;6.55;;
67508;SDS011;54354;44.724;11.284;2024-03-02T00:38:15;24.30;;;5.65;;
67508;SDS011;54354;44.724;11.284;2024-03-02T00:40:41;21.05;;;5.82;;
67508;SDS011;54354;44.724;11.284;2024-03-02T00:43:14;18.83;;;5.38;;
67508;SDS011;54354;44.724;11.284;2024-03-02T00:45:45;23.92;;;5.75;;
67508;SDS011;54354;44.724;11.284;2024-03-02T00:48:11;22.23;;;5.90;;
67508;SDS011;54354;44.724;11.284;2024-03-02T00:50:41;26.00;;;7.03;;
67508;SDS011;54354;44.724;11.284;2024-03-02T00:53:09;26.63;;;6.70;;
67508;SDS011;54354;44.724;11.284;2024-03-02T00:55:36;21.15;;;6.50;;
67508;SDS011;54354;44.724;11.284;2024-03-02T00:58:03;20.52;;;6.75;;
67508;SDS011;54354;44.724;11.284;2024-03-02T01:00:28;25.00;;;6.50;;
67508;SDS011;54354;44.724;11.284;2024-03-02T01:02:54;19.15;;;6.30;;
67508;SDS011;54354;44.724;11.284;2024-03-02T01:05:20;24.35;;;5.88;;
67508;SDS011;54354;44.724;11.284;2024-03-02T01:07:45;28.52;;;6.40;;
67508;SDS011;54354;44.724;11.284;2024-03-02T01:10:11;26.35;;;5.93;;
67508;SDS011;54354;44.724;11.284;2024-03-02T01:12:36;24.83;;;5.97;;
67508;SDS011;54354;44.724;11.284;2024-03-02T01:15:02;23.05;;;5.85;;
67508;SDS011;54354;44.724;11.284;2024-03-02T01:17:31;28.85;;;5.85;;
67508;SDS011;54354;44.724;11.284;2024-03-02T01:19:56;24.45;;;6.07;;
67508;SDS011;54354;44.724;11.284;2024-03-02T01:22:22;17.60;;;5.68;;
67508;SDS011;54354;44.724;11.284;2024-03-02T01:24:50;22.48;;;5.85;;
67508;SDS011;54354;44.724;11.284;2024-03-02T01:27:16;21.23;;;5.63;;
67508;SDS011;54354;44.724;11.284;2024-03-02T01:29:41;21.83;;;5.88;;
67508;SDS011;54354;44.724;11.284;2024-03-02T01:32:07;23.23;;;6.00;;
67508;SDS011;54354;44.724;11.284;2024-03-02T01:34:32;19.05;;;5.30;;
67508;SDS011;54354;44.724;11.284;2024-03-02T01:36:58;25.85;;;6.00;;
67508;SDS011;54354;44.724;11.284;2024-03-02T01:39:23;21.00;;;5.63;;
67508;SDS011;54354;44.724;11.284;2024-03-02T01:41:49;20.13;;;5.65;;
67508;SDS011;54354;44.724;11.284;2024-03-02T01:44:14;23.38;;;5.68;;
67508;SDS011;54354;44.724;11.284;2024-03-02T01:46:40;19.08;;;5.00;;
67508;SDS011;54354;44.724;11.284;2024-03-02T01:49:06;17.27;;;4.97;;
67508;SDS011;54354;44.724;11.284;2024-03-02T01:51:31;17.70;;;5.25;;
67508;SDS011;54354;44.724;11.284;2024-03-02T01:53:57;21.17;;;5.40;;
67508;SDS011;54354;44.724;11.284;2024-03-02T01:56:22;17.25;;;4.70;;
67508;SDS011;54354;44.724;11.284;2024-03-02T01:58:49;23.05;;;5.07;;
67508;SDS011;54354;44.724;11.284;2024-03-02T02:01:14;19.65;;;4.72;;
67508;SDS011;54354;44.724;11.284;2024-03-02T02:03:41;22.77;;;4.90;;
67508;SDS011;54354;44.724;11.284;2024-03-02T02:06:07;15.90;;;4.32;;
67508;SDS011;54354;44.724;11.284;2024-03-02T02:08:33;20.95;;;4.75;;
67508;SDS011;54354;44.724;11.284;2024-03-02T02:10:58;24.00;;;4.25;;
67508;SDS011;54354;44.724;11.284;2024-03-02T02:13:24;20.13;;;4.30;;
67508;SDS011;54354;44.724;11.284;2024-03-02T02:15:49;20.83;;;4.43;;
67508;SDS011;54354;44.724;11.284;2024-03-02T02:18:15;18.35;;;4.68;;
67508;SDS011;54354;44.724;11.284;2024-03-02T02:20:41;18.80;;;4.60;;
67508;SDS011;54354;44.724;11.284;2024-03-02T02:23:06;19.60;;;4.40;;
67508;SDS011;54354;44.724;11.284;2024-03-02T02:25:34;22.20;;;4.63;;
67508;SDS011;54354;44.724;11.284;2024-03-02T02:28:00;17.45;;;4.25;;
67508;SDS011;54354;44.724;11.284;2024-03-02T02:30:26;24.67;;;4.60;;
67508;SDS011;54354;44.724;11.284;2024-03-02T02:32:55;19.77;;;4.57;;
67508;SDS011;54354;44.724;11.284;2024-03-02T02:35:21;18.48;;;4.35;;
67508;SDS011;54354;44.724;11.284;2024-03-02T02:37:49;19.13;;;4.63;;
67508;SDS011;54354;44.724;11.284;2024-03-02T02:40:15;17.75;;;4.40;;
67508;SDS011;54354;44.724;11.284;2024-03-02T02:42:41;18.23;;;4.13;;
67508;SDS011;54354;44.724;11.284;2024-03-02T02:45:07;20.45;;;4.10;;
67508;SDS011;54354;44.724;11.284;2024-03-02T02:47:32;22.45;;;4.80;;
67508;SDS011;54354;44.724;11.284;2024-03-02T02:50:04;13.68;;;3.90;;
67508;SDS011;54354;44.724;11.284;2024-03-02T02:52:35;19.42;;;4.28;;
67508;SDS011;54354;44.724;11.284;2024-03-02T02:55:05;13.30;;;4.30;;
67508;SDS011;54354;44.724;11.284;2024-03-02T02:57:32;16.23;;;4.55;;
67508;SDS011;54354;44.724;11.284;2024-03-02T03:00:05;15.77;;;4.20;;
67508;SDS011;54354;44.724;11.284;2024-03-02T03:02:38;14.63;;;4.13;;
67508;SDS011;54354;44.724;11.284;2024-03-02T03:05:04;17.10;;;3.85;;
67508;SDS011;54354;44.724;11.284;2024-03-02T03:07:31;13.55;;;3.60;;
67508;SDS011;54354;44.724;11.284;2024-03-02T03:09:58;12.55;;;4.10;;
67508;SDS011;54354;44.724;11.284;2024-03-02T03:12:23;16.60;;;3.72;;
67508;SDS011;54354;44.724;11.284;2024-03-02T03:14:48;14.07;;;3.65;;
67508;SDS011;54354;44.724;11.284;2024-03-02T03:17:14;16.15;;;3.60;;
67508;SDS011;54354;44.724;11.284;2024-03-02T03:19:40;14.63;;;3.85;;
67508;SDS011;54354;44.724;11.284;2024-03-02T03:22:05;13.73;;;4.28;;
67508;SDS011;54354;44.724;11.284;2024-03-02T03:24:31;17.90;;;4.13;;
67508;SDS011;54354;44.724;11.284;2024-03-02T03:26:58;15.13;;;3.97;;
67508;SDS011;54354;44.724;11.284;2024-03-02T03:29:23;11.88;;;3.70;;
67508;SDS011;54354;44.724;11.284;2024-03-02T03:31:50;12.65;;;3.90;;
67508;SDS011;54354;44.724;11.284;2024-03-02T03:34:15;13.77;;;4.30;;
67508;SDS011;54354;44.724;11.284;2024-03-02T03:36:41;15.90;;;3.97;;
67508;SDS011;54354;44.724;11.284;2024-03-02T03:39:07;10.10;;;4.10;;
67508;SDS011;54354;44.724;11.284;2024-03-02T03:41:33;17.00;;;4.65;;
67508;SDS011;54354;44.724;11.284;2024-03-02T03:43:58;15.10;;;4.45;;
67508;SDS011;54354;44.724;11.284;2024-03-02T03:46:24;14.77;;;5.03;;
67508;SDS011;54354;44.724;11.284;2024-03-02T03:48:49;17.70;;;5.25;;
67508;SDS011;54354;44.724;11.284;2024-03-02T03:51:15;12.02;;;4.65;;
67508;SDS011;54354;44.724;11.284;2024-03-02T03:53:40;18.17;;;5.57;;
67508;SDS011;54354;44.724;11.284;2024-03-02T03:56:06;14.00;;;4.70;;
67508;SDS011;54354;44.724;11.284;2024-03-02T03:58:31;16.73;;;5.00;;
67508;SDS011;54354;44.724;11.284;2024-03-02T04:00:57;15.73;;;5.22;;
67508;SDS011;54354;44.724;11.284;2024-03-02T04:03:22;14.65;;;5.65;;
67508;SDS011;54354;44.724;11.284;2024-03-02T04:05:48;12.80;;;5.55;;
67508;SDS011;54354;44.724;11.284;2024-03-02T04:08:13;14.60;;;5.50;;
67508;SDS011;54354;44.724;11.284;2024-03-02T04:10:39;16.52;;;5.85;;
67508;SDS011;54354;44.724;11.284;2024-03-02T04:13:05;13.38;;;5.88;;
67508;SDS011;54354;44.724;11.284;2024-03-02T04:15:31;16.33;;;5.63;;
67508;SDS011;54354;44.724;11.284;2024-03-02T04:17:57;13.35;;;5.78;;
67508;SDS011;54354;44.724;11.284;2024-03-02T04:20:22;15.48;;;6.07;;
67508;SDS011;54354;44.724;11.284;2024-03-02T04:22:48;20.55;;;6.10;;
67508;SDS011;54354;44.724;11.284;2024-03-02T04:25:13;14.23;;;6.28;;
67508;SDS011;54354;44.724;11.284;2024-03-02T04:27:39;17.00;;;5.88;;
67508;SDS011;54354;44.724;11.284;2024-03-02T04:30:04;12.65;;;6.22;;
67508;SDS011;54354;44.724;11.284;2024-03-02T04:32:31;12.57;;;6.30;;
67508;SDS011;54354;44.724;11.284;2024-03-02T04:34:56;9.82;;;5.68;;
67508;SDS011;54354;44.724;11.284;2024-03-02T04:37:22;14.50;;;5.93;;
67508;SDS011;54354;44.724;11.284;2024-03-02T04:39:48;17.20;;;6.40;;
67508;SDS011;54354;44.724;11.284;2024-03-02T04:42:13;13.10;;;6.68;;
67508;SDS011;54354;44.724;11.284;2024-03-02T04:44:39;15.75;;;6.63;;
67508;SDS011;54354;44.724;11.284;2024-03-02T04:47:04;11.93;;;6.30;;
67508;SDS011;54354;44.724;11.284;2024-03-02T04:49:30;15.43;;;5.78;;
67508;SDS011;54354;44.724;11.284;2024-03-02T04:51:56;17.10;;;6.10;;
67508;SDS011;54354;44.724;11.284;2024-03-02T04:54:22;15.13;;;6.28;;
67508;SDS011;54354;44.724;11.284;2024-03-02T04:56:48;13.73;;;6.40;;
67508;SDS011;54354;44.724;11.284;2024-03-02T04:59:16;15.82;;;5.95;;
67508;SDS011;54354;44.724;11.284;2024-03-02T05:01:43;12.82;;;6.40;;
67508;SDS011;54354;44.724;11.284;2024-03-02T05:04:09;14.35;;;6.72;;
67508;SDS011;54354;44.724;11.284;2024-03-02T05:06:39;15.38;;;6.18;;
67508;SDS011;54354;44.724;11.284;2024-03-02T05:09:08;15.30;;;6.50;;
67508;SDS011;54354;44.724;11.284;2024-03-02T05:11:34;16.35;;;6.43;;
67508;SDS011;54354;44.724;11.284;2024-03-02T05:14:03;15.57;;;6.25;;
67508;SDS011;54354;44.724;11.284;2024-03-02T05:16:32;14.43;;;6.95;;
67508;SDS011;54354;44.724;11.284;2024-03-02T05:18:58;16.80;;;7.40;;
67508;SDS011;54354;44.724;11.284;2024-03-02T05:21:23;18.63;;;7.40;;
67508;SDS011;54354;44.724;11.284;2024-03-02T05:23:49;14.50;;;7.35;;
67508;SDS011;54354;44.724;11.284;2024-03-02T05:26:14;15.57;;;7.35;;
67508;SDS011;54354;44.724;11.284;2024-03-02T05:28:40;18.98;;;8.18;;
67508;SDS011;54354;44.724;11.284;2024-03-02T05:31:05;15.63;;;8.18;;
67508;SDS011;54354;44.724;11.284;2024-03-02T05:33:31;16.75;;;8.30;;
67508;SDS011;54354;44.724;11.284;2024-03-02T05:35:58;16.00;;;7.78;;
67508;SDS011;54354;44.724;11.284;2024-03-02T05:38:23;19.13;;;8.20;;
67508;SDS011;54354;44.724;11.284;2024-03-02T05:40:49;16.52;;;8.35;;
67508;SDS011;54354;44.724;11.284;2024-03-02T05:43:15;21.25;;;8.45;;
67508;SDS011;54354;44.724;11.284;2024-03-02T05:45:40;20.80;;;9.10;;
67508;SDS011;54354;44.724;11.284;2024-03-02T05:48:06;21.13;;;8.60;;
67508;SDS011;54354;44.724;11.284;2024-03-02T05:50:32;19.63;;;8.63;;
67508;SDS011;54354;44.724;11.284;2024-03-02T05:52:58;15.88;;;8.60;;
67508;SDS011;54354;44.724;11.284;2024-03-02T05:55:24;20.45;;;9.27;;
67508;SDS011;54354;44.724;11.284;2024-03-02T05:57:50;19.48;;;9.02;;
67508;SDS011;54354;44.724;11.284;2024-03-02T06:00:30;17.98;;;9.50;;
67508;SDS011;54354;44.724;11.284;2024-03-02T06:02:56;15.43;;;9.25;;
67508;SDS011;54354;44.724;11.284;2024-03-02T06:05:21;14.90;;;9.05;;
67508;SDS011;54354;44.724;11.284;2024-03-02T06:07:47;17.15;;;9.10;;
67508;SDS011;54354;44.724;11.284;2024-03-02T06:10:13;16.83;;;9.13;;
67508;SDS011;54354;44.724;11.284;2024-03-02T06:12:39;13.82;;;9.13;;
67508;SDS011;54354;44.724;11.284;2024-03-02T06:15:05;14.52;;;9.18;;
67508;SDS011;54354;44.724;11.284;2024-03-02T06:17:30;15.85;;;8.75;;
67508;SDS011;54354;44.724;11.284;2024-03-02T06:19:56;16.45;;;8.50;;
67508;SDS011;54354;44.724;11.284;2024-03-02T06:22:21;15.65;;;7.75;;
67508;SDS011;54354;44.724;11.284;2024-03-02T06:24:50;12.32;;;7.60;;
67508;SDS011;54354;44.724;11.284;2024-03-02T06:27:16;11.10;;;7.72;;
67508;SDS011;54354;44.724;11.284;2024-03-02T06:29:41;15.73;;;7.50;;
67508;SDS011;54354;44.724;11.284;2024-03-02T06:32:07;13.85;;;7.03;;
67508;SDS011;54354;44.724;11.284;2024-03-02T06:34:33;12.05;;;7.22;;
67508;SDS011;54354;44.724;11.284;2024-03-02T06:36:58;12.35;;;7.10;;
67508;SDS011;54354;44.724;11.284;2024-03-02T06:39:23;12.93;;;7.07;;
67508;SDS011;54354;44.724;11.284;2024-03-02T06:41:51;11.82;;;7.22;;
67508;SDS011;54354;44.724;11.284;2024-03-02T06:44:17;14.98;;;7.80;;
67508;SDS011;54354;44.724;11.284;2024-03-02T06:46:42;17.20;;;7.55;;
67508;SDS011;54354;44.724;11.284;2024-03-02T06:49:08;14.90;;;7.35;;
67508;SDS011;54354;44.724;11.284;2024-03-02T06:51:35;13.23;;;7.43;;
67508;SDS011;54354;44.724;11.284;2024-03-02T06:54:00;11.15;;;7.90;;
67508;SDS011;54354;44.724;11.284;2024-03-02T06:56:26;12.90;;;7.22;;
67508;SDS011;54354;44.724;11.284;2024-03-02T06:58:51;15.30;;;7.43;;
67508;SDS011;54354;44.724;11.284;2024-03-02T07:01:17;10.35;;;6.97;;
67508;SDS011;54354;44.724;11.284;2024-03-02T07:03:42;10.38;;;7.85;;
67508;SDS011;54354;44.724;11.284;2024-03-02T07:06:09;13.13;;;7.22;;
67508;SDS011;54354;44.724;11.284;2024-03-02T07:08:34;12.38;;;7.07;;
67508;SDS011;54354;44.724;11.284;2024-03-02T07:11:00;13.38;;;7.50;;
67508;SDS011;54354;44.724;11.284;2024-03-02T07:13:26;17.02;;;8.18;;
67508;SDS011;54354;44.724;11.284;2024-03-02T07:15:52;13.23;;;7.00;;
67508;SDS011;54354;44.724;11.284;2024-03-02T07:18:30;10.63;;;6.95;;
67508;SDS011;54354;44.724;11.284;2024-03-02T07:20:56;9.90;;;6.35;;
67508;SDS011;54354;44.724;11.284;2024-03-02T07:23:24;10.63;;;7.90;;
67508;SDS011;54354;44.724;11.284;2024-03-02T07:25:52;11.43;;;7.93;;
67508;SDS011;54354;44.724;11.284;2024-03-02T07:28:24;16.87;;;8.50;;
67508;SDS011;54354;44.724;11.284;2024-03-02T07:31:03;11.50;;;8.07;;
67508;SDS011;54354;44.724;11.284;2024-03-02T07:33:30;14.38;;;8.48;;
67508;SDS011;54354;44.724;11.284;2024-03-02T07:35:56;11.77;;;7.78;;
67508;SDS011;54354;44.724;11.284;2024-03-02T07:38:24;13.35;;;8.30;;
67508;SDS011;54354;44.724;11.284;2024-03-02T07:40:50;11.95;;;7.88;;
67508;SDS011;54354;44.724;11.284;2024-03-02T07:43:19;14.40;;;8.27;;
67508;SDS011;54354;44.724;11.284;2024-03-02T07:45:45;13.75;;;8.02;;
67508;SDS011;54354;44.724;11.284;2024-03-02T07:48:11;15.60;;;7.70;;
67508;SDS011;54354;44.724;11.284;2024-03-02T07:50:37;13.13;;;7.32;;
67508;SDS011;54354;44.724;11.284;2024-03-02T07:53:04;13.45;;;8.00;;
67508;SDS011;54354;44.724;11.284;2024-03-02T07:55:30;14.90;;;8.18;;
67508;SDS011;54354;44.724;11.284;2024-03-02T07:57:56;10.85;;;7.72;;
67508;SDS011;54354;44.724;11.284;2024-03-02T08:00:23;11.40;;;7.78;;
67508;SDS011;54354;44.724;11.284;2024-03-02T08:02:49;13.57;;;7.95;;
67508;SDS011;54354;44.724;11.284;2024-03-02T08:05:18;10.87;;;6.67;;
67508;SDS011;54354;44.724;11.284;2024-03-02T08:07:44;11.23;;;6.75;;
67508;SDS011;54354;44.724;11.284;2024-03-02T08:10:11;9.95;;;6.57;;
67508;SDS011;54354;44.724;11.284;2024-03-02T08:12:36;11.63;;;6.85;;
67508;SDS011;54354;44.724;11.284;2024-03-02T08:15:02;10.15;;;6.25;;
67508;SDS011;54354;44.724;11.284;2024-03-02T08:17:28;12.00;;;6.70;;
67508;SDS011;54354;44.724;11.284;2024-03-02T08:19:53;12.98;;;6.60;;
67508;SDS011;54354;44.724;11.284;2024-03-02T08:22:19;7.68;;;5.90;;
67508;SDS011;54354;44.724;11.284;2024-03-02T08:24:45;8.43;;;5.47;;
67508;SDS011;54354;44.724;11.284;2024-03-02T08:27:11;8.40;;;5.25;;
67508;SDS011;54354;44.724;11.284;2024-03-02T08:29:37;7.55;;;5.75;;
67508;SDS011;54354;44.724;11.284;2024-03-02T08:32:03;9.32;;;5.63;;
67508;SDS011;54354;44.724;11.284;2024-03-02T08:34:28;7.03;;;5.53;;
67508;SDS011;54354;44.724;11.284;2024-03-02T08:36:54;7.05;;;5.70;;
67508;SDS011;54354;44.724;11.284;2024-03-02T08:39:20;7.15;;;5.68;;
67508;SDS011;54354;44.724;11.284;2024-03-02T08:41:45;9.63;;;5.90;;
67508;SDS011;54354;44.724;11.284;2024-03-02T08:44:11;8.48;;;5.43;;
67508;SDS011;54354;44.724;11.284;2024-03-02T08:46:38;11.70;;;5.65;;
67508;SDS011;54354;44.724;11.284;2024-03-02T08:49:04;10.15;;;6.10;;
67508;SDS011;54354;44.724;11.284;2024-03-02T08:51:30;8.55;;;5.28;;
67508;SDS011;54354;44.724;11.284;2024-03-02T08:53:57;8.05;;;5.93;;
67508;SDS011;54354;44.724;11.284;2024-03-02T08:56:23;8.32;;;5.85;;
67508;SDS011;54354;44.724;11.284;2024-03-02T08:58:52;8.90;;;5.65;;
67508;SDS011;54354;44.724;11.284;2024-03-02T09:01:18;8.60;;;5.90;;
67508;SDS011;54354;44.724;11.284;2024-03-02T09:03:44;10.88;;;6.32;;
67508;SDS011;54354;44.724;11.284;2024-03-02T09:06:11;12.13;;;6.90;;
67508;SDS011;54354;44.724;11.284;2024-03-02T09:08:36;9.95;;;7.13;;
67508;SDS011;54354;44.724;11.284;2024-03-02T09:11:03;8.20;;;6.65;;
67508;SDS011;54354;44.724;11.284;2024-03-02T09:13:30;8.50;;;6.20;;
67508;SDS011;54354;44.724;11.284;2024-03-02T09:15:56;9.55;;;6.50;;
67508;SDS011;54354;44.724;11.284;2024-03-02T09:18:22;7.28;;;5.90;;
67508;SDS011;54354;44.724;11.284;2024-03-02T09:20:47;9.52;;;5.65;;
67508;SDS011;54354;44.724;11.284;2024-03-02T09:23:13;7.70;;;5.32;;
67508;SDS011;54354;44.724;11.284;2024-03-02T09:25:38;6.22;;;4.78;;
67508;SDS011;54354;44.724;11.284;2024-03-02T09:28:04;7.90;;;4.80;;
67508;SDS011;54354;44.724;11.284;2024-03-02T09:30:30;6.63;;;4.45;;
67508;SDS011;54354;44.724;11.284;2024-03-02T09:32:55;6.00;;;4.38;;
67508;SDS011;54354;44.724;11.284;2024-03-02T09:35:21;5.82;;;4.38;;
67508;SDS011;54354;44.724;11.284;2024-03-02T09:37:46;7.03;;;5.00;;
67508;SDS011;54354;44.724;11.284;2024-03-02T09:40:13;6.68;;;4.50;;
67508;SDS011;54354;44.724;11.284;2024-03-02T09:42:39;5.22;;;4.72;;
67508;SDS011;54354;44.724;11.284;2024-03-02T09:45:06;5.07;;;4.57;;
67508;SDS011;54354;44.724;11.284;2024-03-02T09:47:31;6.40;;;4.82;;
67508;SDS011;54354;44.724;11.284;2024-03-02T09:49:57;5.25;;;4.75;;
67508;SDS011;54354;44.724;11.284;2024-03-02T09:52:23;5.85;;;5.25;;
67508;SDS011;54354;44.724;11.284;2024-03-02T09:54:48;5.13;;;4.63;;
67508;SDS011;54354;44.724;11.284;2024-03-02T09:57:14;5.13;;;4.55;;
67508;SDS011;54354;44.724;11.284;2024-03-02T09:59:40;6.78;;;4.32;;
67508;SDS011;54354;44.724;11.284;2024-03-02T10:02:06;5.88;;;4.20;;
67508;SDS011;54354;44.724;11.284;2024-03-02T10:04:32;7.03;;;4.35;;
67508;SDS011;54354;44.724;11.284;2024-03-02T10:07:11;5.40;;;4.30;;
67508;SDS011;54354;44.724;11.284;2024-03-02T10:09:37;4.82;;;3.50;;
67508;SDS011;54354;44.724;11.284;2024-03-02T10:12:06;4.07;;;3.40;;
67508;SDS011;54354;44.724;11.284;2024-03-02T10:14:33;5.18;;;3.63;;
67508;SDS011;54354;44.724;11.284;2024-03-02T10:17:03;5.75;;;3.08;;
67508;SDS011;54354;44.724;11.284;2024-03-02T10:19:30;4.40;;;2.58;;
67508;SDS011;54354;44.724;11.284;2024-03-02T10:22:09;4.35;;;2.60;;
67508;SDS011;54354;44.724;11.284;2024-03-02T10:27:14;3.63;;;2.50;;
67508;SDS011;54354;44.724;11.284;2024-03-02T10:29:41;3.05;;;2.70;;
67508;SDS011;54354;44.724;11.284;2024-03-02T10:32:10;3.47;;;2.53;;
67508;SDS011;54354;44.724;11.284;2024-03-02T10:34:36;2.70;;;2.50;;
67508;SDS011;54354;44.724;11.284;2024-03-02T10:37:03;3.90;;;2.40;;
67508;SDS011;54354;44.724;11.284;2024-03-02T10:39:29;2.65;;;2.15;;
67508;SDS011;54354;44.724;11.284;2024-03-02T10:41:56;5.15;;;2.47;;
67508;SDS011;54354;44.724;11.284;2024-03-02T10:44:23;3.92;;;2.20;;
67508;SDS011;54354;44.724;11.284;2024-03-02T10:46:51;4.13;;;2.50;;
67508;SDS011;54354;44.724;11.284;2024-03-02T10:49:20;2.85;;;2.20;;
67508;SDS011;54354;44.724;11.284;2024-03-02T10:51:47;6.40;;;2.40;;
67508;SDS011;54354;44.724;11.284;2024-03-02T10:54:14;2.42;;;2.10;;
67508;SDS011;54354;44.724;11.284;2024-03-02T10:56:40;2.45;;;2.00;;
67508;SDS011;54354;44.724;11.284;2024-03-02T10:59:24;2.80;;;2.60;;
67508;SDS011;54354;44.724;11.284;2024-03-02T11:01:56;3.17;;;2.85;;
67508;SDS011;54354;44.724;11.284;2024-03-02T11:04:24;3.30;;;3.00;;
67508;SDS011;54354;44.724;11.284;2024-03-02T11:06:51;2.97;;;2.67;;
67508;SDS011;54354;44.724;11.284;2024-03-02T11:09:21;3.60;;;3.30;;
67508;SDS011;54354;44.724;11.284;2024-03-02T11:14:31;4.20;;;3.60;;
67508;SDS011;54354;44.724;11.284;2024-03-02T11:16:58;3.55;;;3.08;;
67508;SDS011;54354;44.724;11.284;2024-03-02T11:19:27;3.40;;;3.10;;
67508;SDS011;54354;44.724;11.284;2024-03-02T11:21:53;3.97;;;2.85;;
67508;SDS011;54354;44.724;11.284;2024-03-02T11:26:52;3.13;;;2.83;;
67508;SDS011;54354;44.724;11.284;2024-03-02T11:32:05;3.30;;;3.00;;
67508;SDS011;54354;44.724;11.284;2024-03-02T11:34:42;6.10;;;2.28;;
67508;SDS011;54354;44.724;11.284;2024-03-02T11:37:10;2.70;;;2.50;;
67508;SDS011;54354;44.724;11.284;2024-03-02T11:39:37;3.30;;;3.00;;
67508;SDS011;54354;44.724;11.284;2024-03-02T11:42:05;2.65;;;2.45;;
67508;SDS011;54354;44.724;11.284;2024-03-02T11:44:37;2.72;;;2.35;;
67508;SDS011;54354;44.724;11.284;2024-03-02T11:47:07;3.63;;;2.00;;
67508;SDS011;54354;44.724;11.284;2024-03-02T11:49:43;2.30;;;2.00;;
67508;SDS011;54354;44.724;11.284;2024-03-02T11:52:11;4.28;;;2.03;;
67508;SDS011;54354;44.724;11.284;2024-03-02T11:54:38;2.45;;;2.15;;
67508;SDS011;54354;44.724;11.284;2024-03-02T11:57:05;3.42;;;2.10;;
67508;SDS011;54354;44.724;11.284;2024-03-02T11:59:34;2.20;;;1.97;;
67508;SDS011;54354;44.724;11.284;2024-03-02T12:02:00;2.72;;;1.70;;
67508;SDS011;54354;44.724;11.284;2024-03-02T12:04:26;2.22;;;1.73;;
67508;SDS011;54354;44.724;11.284;2024-03-02T12:06:56;4.78;;;3.47;;
67508;SDS011;54354;44.724;11.284;2024-03-02T12:09:25;1.95;;;1.58;;
67508;SDS011;54354;44.724;11.284;2024-03-02T12:14:30;1.70;;;1.60;;
67508;SDS011;54354;44.724;11.284;2024-03-02T12:16:57;2.92;;;1.60;;
67508;SDS011;54354;44.724;11.284;2024-03-02T12:19:24;2.00;;;1.80;;
67508;SDS011;54354;44.724;11.284;2024-03-02T12:21:51;1.75;;;1.52;;
67508;SDS011;54354;44.724;11.284;2024-03-02T12:24:17;1.60;;;1.50;;
67508;SDS011;54354;44.724;11.284;2024-03-02T12:26:42;1.90;;;1.50;;
67508;SDS011;54354;44.724;11.284;2024-03-02T12:29:08;2.05;;;1.40;;
67508;SDS011;54354;44.724;11.284;2024-03-02T12:31:34;1.38;;;1.17;;
67508;SDS011;54354;44.724;11.284;2024-03-02T12:34:01;1.30;;;1.10;;
67508;SDS011;54354;44.724;11.284;2024-03-02T12:36:28;0.80;;;0.80;;
67508;SDS011;54354;44.724;11.284;2024-03-02T12:38:53;1.27;;;0.90;;
67508;SDS011;54354;44.724;11.284;2024-03-02T12:41:20;2.47;;;1.00;;
67508;SDS011;54354;44.724;11.284;2024-03-02T12:43:46;0.70;;;0.70;;
67508;SDS011;54354;44.724;11.284;2024-03-02T12:46:12;2.03;;;0.80;;
67508;SDS011;54354;44.724;11.284;2024-03-02T12:48:37;4.60;;;0.90;;
67508;SDS011;54354;44.724;11.284;2024-03-02T12:51:06;1.00;;;0.70;;
67508;SDS011;54354;44.724;11.284;2024-03-02T12:53:32;2.38;;;0.90;;
67508;SDS011;54354;44.724;11.284;2024-03-02T12:55:57;0.93;;;0.60;;
67508;SDS011;54354;44.724;11.284;2024-03-02T12:58:24;2.70;;;0.75;;
67508;SDS011;54354;44.724;11.284;2024-03-02T13:00:50;1.48;;;0.70;;
67508;SDS011;54354;44.724;11.284;2024-03-02T13:03:17;0.70;;;0.70;;
67508;SDS011;54354;44.724;11.284;2024-03-02T13:05:48;0.60;;;0.60;;
67508;SDS011;54354;44.724;11.284;2024-03-02T13:08:15;1.30;;;0.60;;
67508;SDS011;54354;44.724;11.284;2024-03-02T13:10:41;1.80;;;0.80;;
67508;SDS011;54354;44.724;11.284;2024-03-02T13:13:07;1.80;;;0.60;;
67508;SDS011;54354;44.724;11.284;2024-03-02T13:15:33;1.00;;;0.80;;
67508;SDS011;54354;44.724;11.284;2024-03-02T13:18:00;1.63;;;0.70;;
67508;SDS011;54354;44.724;11.284;2024-03-02T13:20:29;0.90;;;0.60;;
67508;SDS011;54354;44.724;11.284;2024-03-02T13:22:57;0.77;;;0.60;;
67508;SDS011;54354;44.724;11.284;2024-03-02T13:25:22;0.77;;;0.63;;
67508;SDS011;54354;44.724;11.284;2024-03-02T13:27:48;1.30;;;0.60;;
67508;SDS011;54354;44.724;11.284;2024-03-02T13:30:13;2.47;;;0.70;;
67508;SDS011;54354;44.724;11.284;2024-03-02T13:32:39;1.00;;;0.77;;
67508;SDS011;54354;44.724;11.284;2024-03-02T13:35:05;1.73;;;0.90;;
67508;SDS011;54354;44.724;11.284;2024-03-02T13:37:30;0.77;;;0.63;;
67508;SDS011;54354;44.724;11.284;2024-03-02T13:39:56;1.10;;;0.65;;
67508;SDS011;54354;44.724;11.284;2024-03-02T13:42:21;0.82;;;0.50;;
67508;SDS011;54354;44.724;11.284;2024-03-02T13:44:47;0.50;;;0.45;;
67508;SDS011;54354;44.724;11.284;2024-03-02T13:47:15;0.90;;;0.60;;
67508;SDS011;54354;44.724;11.284;2024-03-02T13:49:40;0.60;;;0.60;;
67508;SDS011;54354;44.724;11.284;2024-03-02T13:52:09;1.23;;;0.57;;
67508;SDS011;54354;44.724;11.284;2024-03-02T13:54:39;0.55;;;0.50;;
67508;SDS011;54354;44.724;11.284;2024-03-02T13:57:06;2.30;;;0.70;;
67508;SDS011;54354;44.724;11.284;2024-03-02T13:59:32;0.70;;;0.65;;
67508;SDS011;54354;44.724;11.284;2024-03-02T14:01:59;1.30;;;0.77;;
67508;SDS011;54354;44.724;11.284;2024-03-02T14:04:25;1.52;;;0.70;;
67508;SDS011;54354;44.724;11.284;2024-03-02T14:06:50;2.35;;;0.57;;
67508;SDS011;54354;44.724;11.284;2024-03-02T14:09:16;0.60;;;0.60;;
67508;SDS011;54354;44.724;11.284;2024-03-02T14:11:42;1.25;;;0.60;;
67508;SDS011;54354;44.724;11.284;2024-03-02T14:14:10;0.50;;;0.50;;
67508;SDS011;54354;44.724;11.284;2024-03-02T14:16:36;1.45;;;0.70;;
67508;SDS011;54354;44.724;11.284;2024-03-02T14:19:01;2.83;;;0.77;;
67508;SDS011;54354;44.724;11.284;2024-03-02T14:21:29;1.80;;;0.80;;
67508;SDS011;54354;44.724;11.284;2024-03-02T14:23:55;1.27;;;0.70;;
67508;SDS011;54354;44.724;11.284;2024-03-02T14:26:20;1.73;;;0.70;;
67508;SDS011;54354;44.724;11.284;2024-03-02T14:28:46;1.02;;;0.70;;
67508;SDS011;54354;44.724;11.284;2024-03-02T14:31:11;2.05;;;0.73;;
67508;SDS011;54354;44.724;11.284;2024-03-02T14:33:37;3.67;;;1.00;;
67508;SDS011;54354;44.724;11.284;2024-03-02T14:36:02;1.42;;;0.60;;
67508;SDS011;54354;44.724;11.284;2024-03-02T14:38:29;0.85;;;0.60;;
67508;SDS011;54354;44.724;11.284;2024-03-02T14:40:55;2.10;;;0.70;;